createdAt,value
2022-11-12T00:00:54.369Z,75.07
2022-11-12T00:04:01.594Z,75.55
2022-11-12T00:07:08.572Z,75.88
2022-11-12T00:10:15.571Z,78.50
2022-11-12T00:13:29.484Z,80.03
2022-11-12T00:16:37.643Z,79.03
2022-11-12T00:19:37.832Z,80.05
2022-11-12T00:22:44.570Z,80.75
2022-11-12T00:25:52.596Z,78.95
2022-11-12T00:28:59.496Z,80.28
2022-11-12T00:32:00.021Z,81.05
2022-11-12T00:35:07.754Z,79.60
2022-11-12T00:38:09.854Z,81.13
2022-11-12T00:41:17.557Z,82.82
2022-11-12T00:44:17.847Z,83.97
2022-11-12T00:47:25.575Z,80.63
2022-11-12T00:50:25.873Z,80.85
2022-11-12T00:53:32.512Z,80.57
2022-11-12T00:56:36.211Z,79.35
2022-11-12T00:59:43.531Z,82.28
2022-11-12T01:02:50.424Z,80.97
2022-11-12T01:05:57.480Z,83.18
2022-11-12T01:08:58.912Z,78.85
2022-11-12T01:12:06.472Z,78.07
2022-11-12T01:15:06.895Z,77.72
2022-11-12T01:18:13.628Z,76.90
2022-11-12T01:21:15.949Z,76.10
2022-11-12T01:24:23.468Z,74.68
2022-11-12T01:27:31.937Z,74.18
2022-11-12T01:30:31.741Z,76.97
2022-11-12T01:33:39.483Z,76.00
2022-11-12T01:36:41.825Z,74.63
2022-11-12T01:39:48.491Z,76.15
2022-11-12T01:42:58.393Z,77.28
2022-11-12T01:46:07.559Z,78.43
2022-11-12T01:49:20.549Z,78.97
2022-11-12T01:52:51.573Z,79.65
2022-11-12T01:56:00.546Z,83.47
2022-11-12T01:59:08.863Z,79.95
2022-11-12T02:02:16.552Z,80.80
2022-11-12T02:05:19.320Z,82.80
2022-11-12T02:08:27.722Z,83.82
2022-11-12T02:11:41.405Z,84.28
2022-11-12T02:14:49.552Z,83.60
2022-11-12T02:17:49.980Z,84.70
2022-11-12T02:21:06.571Z,88.40
2022-11-12T02:24:08.823Z,86.72
2022-11-12T02:27:17.565Z,85.25
2022-11-12T02:30:18.845Z,86.05
2022-11-12T02:33:26.781Z,85.47
2022-11-12T02:36:27.827Z,81.55
2022-11-12T02:39:35.488Z,78.80
2022-11-12T02:42:42.455Z,76.63
2022-11-12T02:45:42.876Z,76.47
2022-11-12T02:48:50.537Z,75.32
2022-11-12T02:51:57.570Z,73.30
2022-11-12T02:55:04.526Z,71.50
2022-11-12T02:58:11.543Z,72.43
2022-11-12T03:01:11.882Z,71.65
2022-11-12T03:04:19.833Z,69.90
2022-11-12T03:07:19.869Z,70.68
2022-11-12T03:10:27.547Z,67.55
2022-11-12T03:13:40.543Z,68.40
2022-11-12T03:16:47.552Z,67.25
2022-11-12T03:19:48.838Z,68.97
2022-11-12T03:23:14.475Z,63.17
2022-11-12T03:26:14.807Z,58.08
2022-11-12T03:29:21.523Z,57.13
2022-11-12T03:32:21.822Z,56.53
2022-11-12T03:35:22.533Z,55.22
2022-11-12T03:38:22.818Z,51.38
2022-11-12T03:41:29.521Z,49.92
2022-11-12T03:44:36.550Z,50.67
2022-11-12T03:47:36.925Z,53.70
2022-11-12T03:50:43.520Z,51.58
2022-11-12T03:53:50.515Z,49.08
2022-11-12T03:56:51.779Z,46.13
2022-11-12T03:59:58.559Z,45.45
2022-11-12T04:03:00.726Z,46.80
2022-11-12T04:06:25.531Z,41.38
2022-11-12T04:09:25.718Z,42.00
2022-11-12T04:12:51.545Z,40.10
2022-11-12T04:16:18.553Z,41.90
2022-11-12T04:19:39.130Z,32.22
2022-11-12T04:22:45.560Z,27.08
2022-11-12T04:26:06.174Z,24.67
2022-11-12T04:29:37.260Z,26.95
2022-11-12T04:32:39.827Z,27.45
2022-11-12T04:35:47.467Z,29.13
2022-11-12T04:38:48.822Z,29.25
2022-11-12T04:42:13.460Z,30.90
2022-11-12T04:45:18.790Z,32.42
2022-11-12T04:48:27.840Z,39.00
2022-11-12T04:51:46.146Z,43.92
2022-11-12T04:54:52.467Z,54.28
2022-11-12T04:58:01.045Z,55.47
2022-11-12T05:01:03.147Z,55.13
2022-11-12T05:04:10.537Z,55.55
2022-11-12T05:07:11.505Z,58.58
2022-11-12T05:10:19.542Z,61.38
2022-11-12T05:13:29.290Z,48.58
2022-11-12T05:16:30.525Z,45.40
2022-11-12T05:19:37.617Z,45.67
2022-11-12T05:22:47.874Z,47.15
2022-11-12T05:26:01.541Z,48.55
2022-11-12T05:29:07.587Z,44.55
2022-11-12T05:32:16.525Z,35.03
2022-11-12T05:35:23.522Z,36.55
2022-11-12T05:38:25.145Z,39.65
2022-11-12T05:41:57.970Z,40.88
2022-11-12T05:45:01.449Z,40.58
2022-11-12T05:48:03.264Z,40.00
2022-11-12T05:51:13.642Z,40.33
2022-11-12T05:54:21.529Z,35.63
2022-11-12T05:57:28.441Z,36.22
2022-11-12T06:00:35.522Z,37.08
2022-11-12T06:03:36.168Z,40.53
2022-11-12T06:06:44.622Z,37.75
2022-11-12T06:09:45.663Z,30.23
2022-11-12T06:12:52.531Z,26.30
2022-11-12T06:16:02.531Z,24.83
2022-11-12T06:19:02.858Z,24.42
2022-11-12T06:22:09.526Z,25.77
2022-11-12T06:25:16.507Z,22.23
2022-11-12T06:28:23.594Z,18.63
2022-11-12T06:31:31.525Z,20.17
2022-11-12T06:34:38.529Z,19.77
2022-11-12T06:37:46.511Z,21.65
2022-11-12T06:40:53.531Z,22.83
2022-11-12T06:44:01.528Z,22.83
2022-11-12T06:47:08.535Z,24.65
2022-11-12T06:50:08.803Z,23.80
2022-11-12T06:53:15.530Z,24.75
2022-11-12T06:56:22.581Z,24.73
2022-11-12T06:59:23.713Z,25.83
2022-11-12T07:02:31.531Z,19.77
2022-11-12T07:05:38.547Z,18.15
2022-11-12T07:08:46.588Z,17.05
2022-11-12T07:11:59.396Z,13.63
2022-11-12T07:15:06.507Z,17.98
2022-11-12T07:18:13.574Z,16.15
2022-11-12T07:21:17.690Z,16.05
2022-11-12T07:24:24.530Z,14.98
2022-11-12T07:27:24.895Z,13.30
2022-11-12T07:30:32.543Z,11.95
2022-11-12T07:33:34.063Z,15.23
2022-11-12T07:36:41.509Z,12.45
2022-11-12T07:39:49.444Z,12.48
2022-11-12T07:42:56.520Z,11.65
2022-11-12T07:46:01.934Z,12.43
2022-11-12T07:49:10.586Z,11.90
2022-11-12T07:52:10.791Z,12.63
2022-11-12T07:55:18.493Z,12.52
2022-11-12T07:58:25.921Z,12.35
2022-11-12T08:01:55.526Z,12.95
2022-11-12T08:04:56.804Z,11.20
2022-11-12T08:08:04.552Z,11.35
2022-11-12T08:11:18.376Z,11.60
2022-11-12T08:14:25.447Z,11.37
2022-11-12T08:17:26.805Z,11.52
2022-11-12T08:20:34.519Z,12.82
2022-11-12T08:23:36.348Z,12.30
2022-11-12T08:26:44.505Z,12.35
2022-11-12T08:29:44.810Z,12.48
2022-11-12T08:32:51.425Z,12.40
2022-11-12T08:35:58.536Z,11.88
2022-11-12T08:38:59.690Z,12.50
2022-11-12T08:42:06.532Z,10.75
2022-11-12T08:45:13.527Z,11.25
2022-11-12T08:48:19.988Z,10.82
2022-11-12T08:51:27.429Z,11.10
2022-11-12T08:54:27.859Z,11.57
2022-11-12T08:57:34.599Z,10.52
2022-11-12T09:00:45.800Z,10.02
2022-11-12T09:03:52.522Z,8.68
2022-11-12T09:06:54.122Z,10.13
2022-11-12T09:10:01.513Z,8.90
2022-11-12T09:13:15.390Z,10.00
2022-11-12T09:16:22.442Z,9.80
2022-11-12T09:19:24.910Z,9.32
2022-11-12T09:22:31.593Z,9.48
2022-11-12T09:25:32.971Z,9.60
2022-11-12T09:28:41.523Z,11.52
2022-11-12T09:31:41.863Z,12.10
2022-11-12T09:34:48.539Z,13.27
2022-11-12T09:37:55.507Z,12.13
2022-11-12T09:41:12.329Z,12.68
2022-11-12T09:44:36.677Z,12.38
2022-11-12T09:47:44.671Z,11.93
2022-11-12T09:51:06.515Z,11.95
2022-11-12T09:54:27.076Z,12.93
2022-11-12T09:57:34.573Z,11.98
2022-11-12T10:00:35.428Z,11.80
2022-11-12T10:03:54.420Z,12.18
2022-11-12T10:07:01.716Z,12.65
2022-11-12T10:10:28.439Z,12.00
2022-11-12T10:14:08.534Z,12.07
2022-11-12T10:17:57.496Z,13.13
2022-11-12T10:21:23.519Z,12.02
2022-11-12T10:24:31.431Z,12.00
2022-11-12T10:27:47.520Z,12.30
2022-11-12T10:30:48.519Z,12.73
2022-11-12T10:33:56.597Z,12.32
2022-11-12T10:37:06.373Z,12.48
2022-11-12T10:40:13.588Z,11.95
2022-11-12T10:43:38.353Z,13.27
2022-11-12T10:46:46.417Z,13.68
2022-11-12T10:49:46.779Z,12.52
2022-11-12T10:53:14.528Z,11.90
2022-11-12T10:56:45.416Z,11.00
2022-11-12T10:59:53.529Z,10.80
2022-11-12T11:03:02.421Z,11.45
2022-11-12T11:06:09.003Z,10.30
2022-11-12T11:09:29.596Z,10.95
2022-11-12T11:12:29.660Z,10.55
2022-11-12T11:15:38.511Z,10.88
2022-11-12T11:18:49.439Z,11.32
2022-11-12T11:22:03.418Z,10.95
2022-11-12T11:25:31.539Z,10.52
2022-11-12T11:29:40.513Z,11.13
2022-11-12T11:32:49.411Z,12.63
2022-11-12T11:35:56.423Z,10.77
2022-11-12T11:39:26.806Z,11.02
2022-11-12T11:43:20.409Z,11.73
2022-11-12T11:46:28.531Z,11.48
2022-11-12T11:50:01.769Z,11.77
2022-11-12T11:53:33.514Z,15.63
2022-11-12T11:56:43.811Z,16.48
2022-11-12T12:00:30.491Z,16.92
2022-11-12T12:03:51.816Z,15.65
2022-11-12T12:07:07.591Z,16.30
2022-11-12T12:10:46.289Z,18.02
2022-11-12T12:14:08.501Z,17.75
2022-11-12T12:17:24.739Z,17.60
2022-11-12T12:20:48.508Z,18.05
2022-11-12T12:23:54.779Z,18.63
2022-11-12T12:27:27.510Z,19.13
2022-11-12T12:30:32.111Z,18.90
2022-11-12T12:34:10.489Z,17.63
2022-11-12T12:37:32.801Z,18.52
2022-11-12T12:40:49.526Z,18.08
2022-11-12T12:43:59.198Z,18.67
2022-11-12T12:47:08.540Z,20.92
2022-11-12T12:50:11.958Z,20.42
2022-11-12T12:53:35.408Z,19.50
2022-11-12T12:59:47.734Z,18.73
2022-11-12T13:02:55.494Z,18.80
2022-11-12T13:06:25.998Z,18.85
2022-11-12T13:09:32.572Z,21.45
2022-11-12T13:13:19.353Z,19.95
2022-11-12T13:16:58.417Z,19.85
2022-11-12T13:20:02.602Z,19.75
2022-11-12T13:23:09.516Z,19.90
2022-11-12T13:26:48.825Z,22.27
2022-11-12T13:29:56.490Z,25.25
2022-11-12T13:32:56.798Z,24.35
2022-11-12T13:36:40.547Z,23.33
2022-11-12T13:39:43.924Z,27.02
2022-11-12T13:42:57.518Z,25.42
2022-11-12T13:46:24.500Z,26.50
2022-11-12T13:49:24.994Z,26.73
2022-11-12T13:52:34.498Z,27.15
2022-11-12T13:55:35.673Z,27.63
2022-11-12T13:58:51.392Z,26.95
2022-11-12T14:01:53.155Z,26.17
2022-11-12T14:05:01.499Z,27.52
2022-11-12T14:08:17.498Z,26.83
2022-11-12T14:11:51.487Z,29.05
2022-11-12T14:15:03.790Z,29.63
2022-11-12T14:18:18.481Z,28.90
2022-11-12T14:21:19.586Z,30.55
2022-11-12T14:24:27.471Z,31.33
2022-11-12T14:27:38.462Z,28.20
2022-11-12T14:30:45.472Z,29.42
2022-11-12T14:33:53.421Z,28.67
2022-11-12T14:37:03.414Z,29.13
2022-11-12T14:40:11.567Z,29.45
2022-11-12T14:43:18.019Z,30.48
2022-11-12T14:46:54.425Z,29.80
2022-11-12T14:49:57.818Z,29.92
2022-11-12T14:53:14.401Z,31.87
2022-11-12T14:56:20.770Z,30.98
2022-11-12T14:59:28.472Z,31.27
2022-11-12T15:02:55.669Z,31.58
2022-11-12T15:06:05.387Z,31.90
2022-11-12T15:09:09.464Z,31.58
2022-11-12T15:15:28.746Z,30.45
2022-11-12T15:18:38.404Z,32.38
2022-11-12T15:21:46.497Z,31.80
2022-11-12T15:24:49.621Z,33.03
2022-11-12T15:27:58.554Z,35.90
2022-11-12T15:31:07.970Z,32.75
2022-11-12T15:34:35.498Z,34.22
2022-11-12T15:37:43.919Z,34.30
2022-11-12T15:40:57.844Z,37.55
2022-11-12T15:43:58.462Z,33.75
2022-11-12T15:47:07.450Z,34.33
2022-11-12T15:50:17.829Z,33.30
2022-11-12T15:53:24.579Z,35.10
2022-11-12T15:56:25.896Z,33.85
2022-11-12T15:59:33.420Z,35.80
2022-11-12T16:02:34.578Z,35.92
2022-11-12T16:05:41.410Z,35.05
2022-11-12T16:08:49.476Z,34.63
2022-11-12T16:11:57.422Z,35.78
2022-11-12T16:15:10.376Z,37.05
2022-11-12T16:18:13.936Z,36.13
2022-11-12T16:21:21.083Z,36.60
2022-11-12T16:24:22.711Z,36.45
2022-11-12T16:27:30.484Z,35.72
2022-11-12T16:30:33.656Z,37.95
2022-11-12T16:33:40.478Z,37.40
2022-11-12T16:36:41.924Z,38.10
2022-11-12T16:39:49.557Z,38.35
2022-11-12T16:42:51.058Z,38.20
2022-11-12T16:45:59.414Z,40.25
2022-11-12T16:48:59.707Z,37.55
2022-11-12T16:52:06.475Z,38.53
2022-11-12T16:55:08.374Z,38.13
2022-11-12T16:58:15.486Z,38.90
2022-11-12T17:01:30.476Z,39.65
2022-11-12T17:04:40.495Z,39.17
2022-11-12T17:07:47.470Z,39.53
2022-11-12T17:10:54.488Z,39.35
2022-11-12T17:14:01.486Z,42.22
2022-11-12T17:17:01.768Z,40.22
2022-11-12T17:20:09.376Z,41.40
2022-11-12T17:23:16.376Z,41.55
2022-11-12T17:26:26.501Z,41.20
2022-11-12T17:29:33.472Z,40.63
2022-11-12T17:32:34.262Z,41.70
2022-11-12T17:35:42.488Z,43.00
2022-11-12T17:38:44.339Z,40.78
2022-11-12T17:41:51.461Z,43.65
2022-11-12T17:44:52.695Z,45.83
2022-11-12T17:47:59.451Z,44.33
2022-11-12T17:51:27.482Z,43.20
2022-11-12T17:54:28.762Z,42.22
2022-11-12T17:57:35.455Z,45.03
2022-11-12T18:00:36.728Z,43.85
2022-11-12T18:03:47.482Z,44.83
2022-11-12T18:06:47.819Z,45.38
2022-11-12T18:09:54.409Z,46.25
2022-11-12T18:13:01.550Z,45.25
2022-11-12T18:16:13.508Z,43.55
2022-11-12T18:19:23.467Z,48.53
2022-11-12T18:22:23.711Z,49.40
2022-11-12T18:25:31.750Z,50.78
2022-11-12T18:28:38.472Z,50.88
2022-11-12T18:31:41.490Z,49.38
2022-11-12T18:34:52.522Z,49.97
2022-11-12T18:37:53.888Z,48.45
2022-11-12T18:41:09.475Z,48.72
2022-11-12T18:44:19.879Z,52.17
2022-11-12T18:47:21.934Z,51.78
2022-11-12T18:50:29.465Z,50.92
2022-11-12T18:53:31.078Z,53.50
2022-11-12T18:56:37.464Z,53.85
2022-11-12T18:59:44.706Z,54.72
2022-11-12T19:02:52.505Z,55.13
2022-11-12T19:06:06.452Z,55.00
2022-11-12T19:09:12.829Z,57.00
2022-11-12T19:12:20.455Z,57.03
2022-11-12T19:15:27.909Z,55.80
2022-11-12T19:18:28.678Z,55.17
2022-11-12T19:21:29.942Z,59.72
2022-11-12T19:24:36.460Z,56.25
2022-11-12T19:27:37.858Z,55.58
2022-11-12T19:30:44.360Z,56.65
2022-11-12T19:33:53.380Z,56.38
2022-11-12T19:37:31.584Z,56.33
2022-11-12T19:40:21.024Z,56.85
2022-11-12T19:43:29.373Z,55.63
2022-11-12T19:46:32.791Z,60.40
2022-11-12T19:49:40.369Z,59.40
2022-11-12T19:52:41.642Z,58.15
2022-11-12T19:55:49.361Z,63.78
2022-11-12T19:58:51.156Z,59.78
2022-11-12T20:01:59.360Z,58.88
2022-11-12T20:05:06.489Z,58.38
2022-11-12T20:08:06.891Z,58.63
2022-11-12T20:11:13.421Z,59.17
2022-11-12T20:14:21.364Z,59.65
2022-11-12T20:17:28.447Z,57.85
2022-11-12T20:20:35.352Z,61.05
2022-11-12T20:23:43.451Z,57.22
2022-11-12T20:26:44.734Z,57.92
2022-11-12T20:29:51.374Z,59.42
2022-11-12T20:32:58.752Z,58.65
2022-11-12T20:36:08.136Z,60.35
2022-11-12T20:39:15.448Z,62.08
2022-11-12T20:42:22.446Z,58.60
2022-11-12T20:45:22.732Z,58.20
2022-11-12T20:48:30.546Z,58.92
2022-11-12T20:51:34.009Z,59.45
2022-11-12T20:54:40.432Z,60.10
2022-11-12T20:57:41.777Z,58.60
2022-11-12T21:00:49.447Z,60.42
2022-11-12T21:03:58.442Z,60.65
2022-11-12T21:07:04.863Z,59.92
2022-11-12T21:10:12.346Z,68.32
2022-11-12T21:13:12.612Z,68.13
2022-11-12T21:16:21.432Z,69.55
2022-11-12T21:19:21.704Z,68.95
2022-11-12T21:22:29.411Z,72.70
2022-11-12T21:25:29.630Z,76.38
2022-11-12T21:28:37.476Z,76.78
2022-11-12T21:31:37.667Z,75.05
2022-11-12T21:34:44.445Z,75.28
2022-11-12T21:37:44.638Z,75.03
2022-11-12T21:40:51.342Z,72.60
2022-11-12T21:43:52.264Z,77.93
2022-11-12T21:46:59.340Z,75.43
2022-11-12T21:49:59.632Z,78.20
2022-11-12T21:53:06.434Z,79.63
2022-11-12T21:56:13.961Z,83.53
2022-11-12T21:59:21.343Z,82.50
2022-11-12T22:02:21.629Z,80.18
2022-11-12T22:05:29.352Z,79.57
2022-11-12T22:08:30.822Z,76.47
2022-11-12T22:11:38.357Z,76.45
2022-11-12T22:14:52.430Z,79.22
2022-11-12T22:17:53.589Z,78.82
2022-11-12T22:21:11.430Z,79.50
2022-11-12T22:24:12.903Z,75.90
2022-11-12T22:27:19.446Z,77.82
2022-11-12T22:30:19.626Z,75.63
2022-11-12T22:33:26.323Z,75.70
2022-11-12T22:36:29.646Z,77.25
2022-11-12T22:39:37.340Z,75.77
2022-11-12T22:42:45.424Z,75.40
2022-11-12T22:45:52.329Z,77.30
2022-11-12T22:49:01.358Z,76.20
2022-11-12T22:52:01.774Z,71.22
2022-11-12T22:55:08.353Z,76.13
2022-11-12T22:58:08.750Z,75.22
2022-11-12T23:01:18.445Z,74.63
2022-11-12T23:04:18.723Z,73.38
2022-11-12T23:07:26.415Z,71.47
2022-11-12T23:10:26.681Z,75.20
2022-11-12T23:13:35.333Z,76.28
2022-11-12T23:16:45.446Z,71.88
2022-11-12T23:19:52.415Z,72.80
2022-11-12T23:22:53.067Z,73.22
2022-11-12T23:26:00.340Z,73.07
2022-11-12T23:29:08.411Z,74.53
2022-11-12T23:32:08.601Z,74.82
2022-11-12T23:35:15.417Z,76.72
2022-11-12T23:38:15.621Z,74.88
2022-11-12T23:41:24.448Z,75.70
2022-11-12T23:44:25.627Z,75.65
2022-11-12T23:47:32.433Z,76.75
2022-11-12T23:50:32.608Z,75.13
2022-11-12T23:53:39.343Z,73.47
2022-11-12T23:56:46.338Z,78.95
2022-11-12T23:59:46.714Z,79.43
